Time;durP1;ratioP1;P1;durP2;ratioP2;P2;SDS_P1;SDS_P2;PMS_P1;PMS_P2;Temp;Humidity;BMP_temperature;BMP_pressure;BME280_temperature;BME280_humidity;BME280_pressure;Samples;Min_cycle;Max_cycle;Signal;HPM_P1;HPM_P2
2022/11/18 00:00:10;;;;;;;3.72;2.20;;;;;;;8.03;82.42;99423.22;5088663;28;20057;-93
2022/11/18 00:02:36;;;;;;;4.03;1.70;;;;;;;7.99;82.46;99419.03;5090014;28;20040;-92
2022/11/18 00:05:01;;;;;;;3.88;1.90;;;;;;;7.97;82.37;99419.09;5068481;28;20065;-93
2022/11/18 00:07:26;;;;;;;4.60;1.95;;;;;;;8.00;82.22;99421.59;5064911;28;20293;-91
2022/11/18 00:09:51;;;;;;;4.75;2.63;;;;;;;7.95;82.58;99422.75;5087103;28;20558;-91
2022/11/18 00:15:00;;;;;;;2.28;1.70;;;;;;;7.88;82.47;99419.59;5087182;28;20038;-91
2022/11/18 00:17:26;;;;;;;6.53;2.40;;;;;;;7.86;82.77;99426.72;5070084;28;20396;-91
2022/11/18 00:19:51;;;;;;;6.15;2.40;;;;;;;7.92;82.94;99436.91;5087650;28;20032;-92
2022/11/18 00:22:16;;;;;;;6.60;2.22;;;;;;;7.93;82.40;99425.47;5070730;28;20027;-91
2022/11/18 00:24:42;;;;;;;4.35;1.92;;;;;;;7.95;82.53;99431.50;5088029;28;20095;-91
2022/11/18 00:27:07;;;;;;;4.45;1.95;;;;;;;7.91;82.94;99432.59;5085323;28;20023;-92
2022/11/18 00:29:32;;;;;;;5.10;1.80;;;;;;;7.96;81.91;99442.88;5087416;28;20059;-91
2022/11/18 00:31:58;;;;;;;5.15;2.00;;;;;;;7.87;82.63;99441.56;5065588;28;20404;-91
2022/11/18 00:34:24;;;;;;;4.55;2.15;;;;;;;7.84;82.89;99441.75;5063989;28;20031;-91
2022/11/18 00:36:49;;;;;;;4.93;2.22;;;;;;;7.85;82.74;99453.97;5065023;28;20028;-92
2022/11/18 00:39:17;;;;;;;3.33;1.58;;;;;;;7.81;83.20;99437.47;5069633;28;20035;-91
2022/11/18 00:44:27;;;;;;;2.83;1.80;;;;;;;8.11;83.59;99456.13;5084262;28;20042;-90
2022/11/18 00:46:53;;;;;;;4.57;1.90;;;;;;;8.14;83.31;99450.66;5067863;28;20016;-92
2022/11/18 00:49:18;;;;;;;6.38;1.80;;;;;;;8.25;83.46;99465.03;5069612;28;20048;-91
2022/11/18 00:51:44;;;;;;;3.85;1.83;;;;;;;8.25;83.54;99457.13;5064023;28;20245;-92
2022/11/18 00:54:09;;;;;;;7.03;2.47;;;;;;;8.33;83.33;99465.50;5069629;28;20071;-92
2022/11/18 00:56:34;;;;;;;5.25;1.80;;;;;;;8.35;83.51;99464.50;5067993;28;20433;-92
2022/11/18 00:59:00;;;;;;;2.42;1.60;;;;;;;8.39;83.41;99473.97;5086585;28;20107;-93
2022/11/18 01:01:25;;;;;;;3.92;2.20;;;;;;;8.30;83.49;99461.25;5086262;28;20024;-92
2022/11/18 01:03:51;;;;;;;7.45;2.15;;;;;;;8.33;83.33;99479.50;5068649;28;20016;-91
2022/11/18 01:06:16;;;;;;;6.88;2.58;;;;;;;8.28;83.01;99472.78;5083585;28;20024;-91
2022/11/18 01:08:41;;;;;;;3.72;1.95;;;;;;;8.26;83.58;99477.31;5084083;28;20502;-91
2022/11/18 01:13:52;;;;;;;3.65;2.20;;;;;;;8.24;82.98;99489.69;5085603;28;20441;-91
2022/11/18 01:16:19;;;;;;;3.55;2.00;;;;;;;8.24;82.81;99492.31;5085788;28;20407;-93
2022/11/18 01:18:44;;;;;;;6.75;2.30;;;;;;;8.24;83.17;99494.94;5086770;28;20095;-91
2022/11/18 01:21:10;;;;;;;7.03;2.17;;;;;;;8.21;83.03;99489.81;5072942;28;20130;-92
2022/11/18 01:23:35;;;;;;;4.72;2.20;;;;;;;8.16;83.09;99487.47;5087255;28;20128;-92
2022/11/18 01:26:04;;;;;;;3.67;2.60;;;;;;;8.19;83.51;99490.75;5088701;28;20114;-91
2022/11/18 01:28:29;;;;;;;3.60;1.83;;;;;;;8.25;83.15;99508.00;5072376;28;20059;-90
2022/11/18 01:31:02;;;;;;;3.13;2.03;;;;;;;8.28;83.46;99509.66;5089617;28;20063;-91
2022/11/18 01:33:28;;;;;;;2.75;1.80;;;;;;;8.35;83.63;99513.69;5087290;28;20531;-91
2022/11/18 01:35:53;;;;;;;5.55;1.95;;;;;;;8.36;83.29;99512.75;5065686;28;20032;-91
2022/11/18 01:38:18;;;;;;;2.38;2.00;;;;;;;8.36;83.62;99511.00;5083917;28;20467;-91
2022/11/18 01:40:43;;;;;;;3.50;1.85;;;;;;;8.40;83.39;99516.94;5068285;28;20035;-91
2022/11/18 01:43:12;;;;;;;3.47;2.00;;;;;;;8.50;83.46;99536.59;5070047;28;20090;-91
2022/11/18 01:45:39;;;;;;;3.90;1.80;;;;;;;8.48;83.41;99527.91;5061854;28;20499;-92
2022/11/18 01:48:05;;;;;;;9.20;3.05;;;;;;;8.54;83.27;99540.78;5067758;28;20044;-92
2022/11/18 01:50:34;;;;;;;6.57;2.05;;;;;;;8.49;83.36;99531.44;5070883;28;20083;-91
2022/11/18 01:53:04;;;;;;;4.75;2.10;;;;;;;8.55;83.45;99539.00;5088841;28;20493;-91
2022/11/18 01:55:33;;;;;;;4.88;1.80;;;;;;;8.55;83.42;99539.84;5070742;28;20032;-92
2022/11/18 01:58:14;;;;;;;5.13;2.78;;;;;;;8.56;83.33;99545.97;5092803;28;20038;-92
2022/11/18 02:00:40;;;;;;;5.57;2.05;;;;;;;8.56;83.23;99549.44;5069127;28;20055;-92
2022/11/18 02:03:06;;;;;;;5.55;1.67;;;;;;;8.56;83.29;99543.31;5090508;28;20074;-91
2022/11/18 02:05:34;;;;;;;2.13;1.63;;;;;;;8.59;83.38;99549.28;5069182;28;20544;-91
2022/11/18 02:08:01;;;;;;;5.13;1.85;;;;;;;8.62;83.37;99553.53;5064580;28;20039;-92
2022/11/18 02:10:27;;;;;;;3.40;1.77;;;;;;;8.56;83.55;99543.31;5089967;28;20031;-92
2022/11/18 02:12:54;;;;;;;4.15;2.03;;;;;;;8.61;83.35;99533.41;5088803;28;20032;-91
2022/11/18 02:15:28;;;;;;;5.35;2.30;;;;;;;8.63;83.40;99542.94;5070098;28;20090;-91
2022/11/18 02:18:22;;;;;;;2.53;1.55;;;;;;;8.75;82.94;99564.28;5082866;28;20028;-91
2022/11/18 02:20:50;;;;;;;6.95;2.10;;;;;;;8.73;83.21;99553.00;5061951;28;20021;-92
2022/11/18 02:23:30;;;;;;;4.05;1.75;;;;;;;8.71;83.40;99554.84;5072778;28;20051;-92
2022/11/18 02:26:17;;;;;;;6.47;1.67;;;;;;;8.72;83.49;99557.41;5088623;28;20137;-91
2022/11/18 02:29:14;;;;;;;2.65;1.80;;;;;;;8.75;83.16;99573.03;5091153;28;20471;-91
2022/11/18 02:31:52;;;;;;;5.93;2.17;;;;;;;8.75;83.40;99575.66;5068647;28;20118;-92
2022/11/18 02:34:37;;;;;;;4.68;1.77;;;;;;;8.77;83.71;99572.97;5065775;28;20032;-90
2022/11/18 02:37:12;;;;;;;2.50;1.80;;;;;;;8.75;83.59;99564.28;5083940;28;20032;-92
2022/11/18 02:39:59;;;;;;;5.55;1.83;;;;;;;8.85;83.49;99579.50;5064954;28;20552;-91
2022/11/18 02:42:26;;;;;;;4.05;1.90;;;;;;;8.95;82.96;99574.59;5088453;28;20105;-91
2022/11/18 02:44:57;;;;;;;2.50;2.10;;;;;;;8.89;83.25;99580.22;5066439;28;20511;-91
2022/11/18 02:47:26;;;;;;;7.68;2.88;;;;;;;8.85;83.67;99574.25;5068949;28;20032;-92
2022/11/18 02:49:56;;;;;;;5.85;2.03;;;;;;;8.90;83.61;99595.09;5087818;28;20040;-91
2022/11/18 02:52:25;;;;;;;2.70;1.50;;;;;;;8.86;83.65;99589.16;5090612;28;20016;-91
2022/11/18 02:54:52;;;;;;;3.75;1.70;;;;;;;8.86;83.82;99583.88;5065002;28;20127;-91
2022/11/18 02:57:19;;;;;;;3.72;1.80;;;;;;;8.87;84.02;99584.72;5089135;28;20028;-91
2022/11/18 02:59:45;;;;;;;5.43;1.90;;;;;;;8.86;83.71;99583.00;5075325;28;20031;-91
2022/11/18 03:02:18;;;;;;;3.15;2.20;;;;;;;8.92;83.70;99599.34;5088463;28;20376;-92
2022/11/18 03:04:46;;;;;;;3.00;2.10;;;;;;;8.94;83.78;99596.63;5080720;28;20107;-92
2022/11/18 03:07:23;;;;;;;3.47;1.80;;;;;;;8.97;84.06;99593.00;5067902;28;20379;-91
2022/11/18 03:09:51;;;;;;;3.78;1.80;;;;;;;8.96;84.12;99597.41;5064502;28;20024;-91
2022/11/18 03:12:47;;;;;;;4.53;2.45;;;;;;;8.98;83.41;99598.16;5091186;28;20043;-91
2022/11/18 03:15:26;;;;;;;4.45;1.95;;;;;;;9.05;83.80;99603.97;5087986;28;20024;-91
2022/11/18 03:18:17;;;;;;;5.05;2.10;;;;;;;9.07;83.54;99610.84;5088708;28;20399;-91
2022/11/18 03:20:51;;;;;;;4.28;2.08;;;;;;;9.06;83.40;99616.22;5086716;28;20487;-92
2022/11/18 03:23:30;;;;;;;5.82;2.08;;;;;;;9.06;84.11;99609.16;5088222;28;20283;-92
2022/11/18 03:26:02;;;;;;;5.95;2.15;;;;;;;9.15;83.61;99618.38;5086730;28;20028;-93
2022/11/18 03:28:34;;;;;;;3.03;1.50;;;;;;;9.19;84.27;99618.13;5071876;28;20024;-93
2022/11/18 03:31:13;;;;;;;3.38;2.08;;;;;;;9.22;83.91;99622.34;5089443;28;20449;-91
2022/11/18 03:33:44;;;;;;;4.13;1.80;;;;;;;9.22;83.95;99637.34;5089349;28;20034;-92
2022/11/18 03:36:13;;;;;;;3.58;1.90;;;;;;;9.22;84.18;99626.78;5061685;28;20046;-92
2022/11/18 03:38:45;;;;;;;5.13;1.92;;;;;;;9.23;84.30;99631.97;5088452;28;20482;-92
2022/11/18 03:41:11;;;;;;;;;;;;;;;9.34;83.10;99634.03;5061737;28;20028;-92
2022/11/18 03:43:42;;;;;;;6.22;2.00;;;;;;;9.25;84.15;99631.91;5087485;28;20333;-92
2022/11/18 03:46:15;;;;;;;2.27;1.97;;;;;;;9.23;84.53;99633.75;5071374;28;20119;-91
2022/11/18 03:48:46;;;;;;;5.22;2.03;;;;;;;9.26;84.25;99644.16;5086753;28;20044;-92
2022/11/18 03:51:17;;;;;;;13.18;3.70;;;;;;;9.19;84.52;99646.28;5070980;28;20077;-93
2022/11/18 03:53:51;;;;;;;5.53;2.42;;;;;;;9.14;84.43;99649.16;5087342;28;20085;-92
2022/11/18 03:56:21;;;;;;;6.40;2.13;;;;;;;9.17;84.55;99648.13;5076142;28;20034;-91
2022/11/18 03:58:54;;;;;;;3.80;1.92;;;;;;;9.22;84.69;99658.44;5070229;28;20092;-92
2022/11/18 04:01:51;;;;;;;4.05;2.10;;;;;;;9.28;84.03;99668.63;5069942;28;20585;-91
2022/11/18 04:04:17;;;;;;;4.75;2.40;;;;;;;9.21;84.55;99670.75;5085670;28;20376;-91
2022/11/18 04:06:42;;;;;;;6.25;2.67;;;;;;;9.27;84.61;99675.69;5062378;28;20035;-92
2022/11/18 04:09:17;;;;;;;5.80;2.28;;;;;;;9.24;84.60;99669.75;5086440;28;20031;-92
2022/11/18 04:12:01;;;;;;;6.57;2.42;;;;;;;9.17;84.81;99669.22;5069760;28;20036;-92
2022/11/18 04:14:28;;;;;;;6.10;2.90;;;;;;;9.15;85.00;99681.66;5068071;28;20051;-93
2022/11/18 04:16:53;;;;;;;5.22;2.25;;;;;;;9.14;84.67;99683.44;5082263;28;20542;-92
2022/11/18 04:19:19;;;;;;;9.90;2.70;;;;;;;9.17;84.86;99690.31;5068860;28;20035;-93
2022/11/18 04:21:47;;;;;;;8.48;2.67;;;;;;;9.19;84.58;99699.88;5090246;28;20034;-92
2022/11/18 04:24:12;;;;;;;6.03;2.63;;;;;;;9.18;84.36;99698.13;5087008;28;20479;-92
2022/11/18 04:26:37;;;;;;;7.60;2.47;;;;;;;9.16;84.72;99696.53;5089060;28;20022;-91
2022/11/18 04:29:02;;;;;;;5.65;2.50;;;;;;;9.12;83.98;99684.44;5071129;28;20024;-92
2022/11/18 04:31:28;;;;;;;4.57;2.33;;;;;;;9.12;83.66;99701.09;5089023;28;20028;-93
2022/11/18 04:33:53;;;;;;;5.93;2.90;;;;;;;9.04;84.17;99690.09;5085378;28;20028;-92
2022/11/18 04:36:18;;;;;;;3.55;2.28;;;;;;;9.08;84.20;99709.25;5068973;28;20043;-92
2022/11/18 04:38:44;;;;;;;5.30;2.70;;;;;;;9.04;84.26;99710.34;5072130;28;20028;-92
2022/11/18 04:41:09;;;;;;;5.90;2.50;;;;;;;9.01;84.34;99700.81;5080595;28;20032;-92
2022/11/18 04:43:34;;;;;;;7.40;2.88;;;;;;;8.95;84.10;99703.75;5090702;28;20024;-93
2022/11/18 04:46:00;;;;;;;5.45;2.97;;;;;;;8.93;83.80;99713.53;5067808;28;20024;-91
2022/11/18 04:48:25;;;;;;;6.03;2.72;;;;;;;8.85;84.42;99713.94;5070833;28;20020;-93
2022/11/18 04:50:50;;;;;;;4.13;2.45;;;;;;;8.80;84.16;99717.72;5082912;28;20098;-92
2022/11/18 04:53:15;;;;;;;7.90;2.65;;;;;;;8.77;84.45;99718.75;5067661;28;20035;-92
2022/11/18 04:55:41;;;;;;;5.07;2.78;;;;;;;8.75;83.92;99717.13;5067935;28;20040;-92
2022/11/18 04:58:06;;;;;;;4.60;2.60;;;;;;;8.64;84.20;99723.78;5094615;28;20046;-93
2022/11/18 05:00:31;;;;;;;4.45;2.67;;;;;;;8.54;84.30;99722.53;5071832;28;20035;-92
2022/11/18 05:02:56;;;;;;;6.80;2.60;;;;;;;8.49;85.16;99731.59;5093783;28;20478;-92
2022/11/18 05:05:22;;;;;;;6.80;2.67;;;;;;;8.42;84.96;99728.41;5088215;28;20051;-92
2022/11/18 05:07:47;;;;;;;5.32;2.47;;;;;;;8.45;84.70;99736.16;5074562;28;20430;-93
2022/11/18 05:10:12;;;;;;;4.53;2.50;;;;;;;8.35;84.94;99725.19;5070413;28;20070;-93
2022/11/18 05:12:51;;;;;;;5.68;3.00;;;;;;;8.43;85.25;99744.13;5075301;28;20032;-92
2022/11/18 05:15:18;;;;;;;2.97;2.40;;;;;;;8.38;84.70;99740.88;5062962;28;20028;-91
2022/11/18 05:17:43;;;;;;;4.57;2.60;;;;;;;8.40;84.58;99754.81;5093653;28;20028;-93
2022/11/18 05:20:10;;;;;;;5.35;2.40;;;;;;;8.29;84.30;99748.31;5070665;28;20024;-92
2022/11/18 05:22:36;;;;;;;4.97;2.60;;;;;;;8.28;83.84;99751.91;5087943;28;20117;-93
2022/11/18 05:25:02;;;;;;;5.60;2.78;;;;;;;8.15;83.34;99741.09;5073015;28;20072;-93
2022/11/18 05:27:27;;;;;;;5.97;2.60;;;;;;;8.18;83.91;99757.59;5073998;28;20030;-92
2022/11/18 05:29:52;;;;;;;5.00;2.85;;;;;;;8.16;84.04;99763.88;5072319;28;20115;-93
2022/11/18 05:32:17;;;;;;;4.85;3.05;;;;;;;8.14;84.07;99758.66;5073585;28;20032;-92
2022/11/18 05:34:43;;;;;;;6.40;2.83;;;;;;;8.09;83.79;99758.03;5066449;28;20024;-93
2022/11/18 05:37:08;;;;;;;7.63;2.85;;;;;;;8.08;84.39;99764.22;5091073;28;20110;-92
2022/11/18 05:39:33;;;;;;;6.05;2.90;;;;;;;8.05;84.34;99771.41;5089800;28;20513;-92
2022/11/18 05:44:44;;;;;;;6.03;2.53;;;;;;;8.04;84.17;99785.50;5090678;28;20043;-93
2022/11/18 05:47:10;;;;;;;4.68;2.80;;;;;;;7.95;84.60;99786.78;5074194;28;20409;-92
2022/11/18 05:49:35;;;;;;;6.70;2.78;;;;;;;7.91;84.42;99779.94;5084256;28;20087;-92
2022/11/18 05:52:01;;;;;;;5.53;3.17;;;;;;;7.89;84.59;99785.28;5073591;28;20115;-93
2022/11/18 05:54:27;;;;;;;8.10;3.15;;;;;;;7.90;84.77;99788.78;5069430;28;20032;-92
2022/11/18 05:56:52;;;;;;;5.38;2.90;;;;;;;7.86;84.23;99784.56;5090687;28;20448;-91
2022/11/18 05:59:17;;;;;;;6.20;3.08;;;;;;;7.88;84.72;99795.88;5067059;28;20027;-92
2022/11/18 06:02:02;;;;;;;4.90;2.80;;;;;;;7.92;84.41;99789.53;5089599;28;20051;-91
2022/11/18 06:04:40;;;;;;;4.60;2.90;;;;;;;7.90;84.92;99791.41;5082754;28;20388;-93
2022/11/18 06:07:14;;;;;;;6.03;3.00;;;;;;;7.87;85.15;99794.16;5087103;28;20051;-92
2022/11/18 06:09:43;;;;;;;4.65;3.03;;;;;;;7.99;84.86;99812.03;5069936;28;20028;-91
2022/11/18 06:12:15;;;;;;;4.20;3.20;;;;;;;7.98;84.59;99812.13;5089158;28;20597;-92
2022/11/18 06:14:49;;;;;;;5.72;3.40;;;;;;;7.92;84.32;99800.06;5077978;28;20140;-92
2022/11/18 06:17:20;;;;;;;5.90;3.33;;;;;;;7.87;84.51;99813.44;5087574;28;20035;-93
2022/11/18 06:19:45;;;;;;;8.98;3.47;;;;;;;7.85;84.26;99817.94;5087713;28;20028;-94
2022/11/18 06:22:11;;;;;;;7.30;3.17;;;;;;;7.88;84.27;99830.97;5065774;28;20043;-91
2022/11/18 06:24:37;;;;;;;5.55;3.50;;;;;;;7.76;84.80;99814.88;5089296;28;20501;-92
2022/11/18 06:27:03;;;;;;;7.97;3.85;;;;;;;7.78;84.33;99834.06;5085310;28;20016;-92
2022/11/18 06:29:29;;;;;;;6.55;3.30;;;;;;;7.81;84.80;99840.03;5070898;28;20487;-92
2022/11/18 06:31:55;;;;;;;5.32;2.90;;;;;;;7.83;84.81;99843.47;5084619;28;20490;-91
2022/11/18 06:34:20;;;;;;;4.93;3.20;;;;;;;7.74;83.95;99837.75;5070116;28;20024;-92
2022/11/18 06:36:45;;;;;;;7.97;3.10;;;;;;;7.78;84.66;99839.31;5065281;28;20052;-92
2022/11/18 06:39:10;;;;;;;6.13;3.00;;;;;;;7.83;84.74;99858.38;5085023;28;20044;-92
2022/11/18 06:41:36;;;;;;;7.10;3.35;;;;;;;7.83;85.29;99851.38;5081863;28;20024;-92
2022/11/18 06:44:01;;;;;;;8.95;4.07;;;;;;;7.81;84.91;99847.09;5072767;28;20032;-92
2022/11/18 06:49:10;;;;;;;5.20;3.42;;;;;;;7.87;85.14;99852.06;5048447;28;1042267;-93
2022/11/18 06:51:36;;;;;;;7.07;4.22;;;;;;;7.90;85.24;99850.16;5084576;28;20471;-92
2022/11/18 06:54:01;;;;;;;6.18;3.35;;;;;;;7.95;85.16;99862.25;5086738;28;20498;-93
2022/11/18 06:56:26;;;;;;;7.93;3.60;;;;;;;7.95;85.37;99864.88;5087522;28;20494;-91
2022/11/18 06:58:57;;;;;;;7.43;3.65;;;;;;;8.01;85.18;99873.34;5090205;28;20085;-91
2022/11/18 07:01:25;;;;;;;7.65;4.18;;;;;;;8.05;84.81;99880.19;5069841;28;20027;-92
2022/11/18 07:03:51;;;;;;;9.63;3.58;;;;;;;8.05;84.44;99884.59;5073559;28;20475;-93
2022/11/18 07:06:21;;;;;;;10.13;3.58;;;;;;;7.99;84.62;99887.50;5060408;28;20031;-91
2022/11/18 07:08:48;;;;;;;9.65;3.67;;;;;;;8.04;84.38;99888.16;5088436;28;20440;-91
2022/11/18 07:11:16;;;;;;;10.25;3.45;;;;;;;8.13;84.74;99904.38;5065889;28;21068;-91
2022/11/18 07:13:43;;;;;;;5.03;3.33;;;;;;;8.22;84.22;99891.75;5069397;28;20030;-91
2022/11/18 07:16:15;;;;;;;9.25;3.78;;;;;;;8.28;83.99;99909.88;5067596;28;20086;-93
2022/11/18 07:18:41;;;;;;;5.90;3.38;;;;;;;8.28;84.24;99905.47;5067425;28;20028;-91
2022/11/18 07:21:09;;;;;;;6.40;3.78;;;;;;;8.25;83.88;99902.13;5084830;28;20024;-92
2022/11/18 07:23:34;;;;;;;9.48;3.72;;;;;;;8.23;84.37;99906.59;5077292;28;20536;-92
2022/11/18 07:26:00;;;;;;;7.43;3.58;;;;;;;8.28;84.02;99917.78;5082770;28;20031;-91
2022/11/18 07:28:27;;;;;;;9.52;3.67;;;;;;;8.27;83.63;99918.72;5072600;28;20024;-92
2022/11/18 07:31:00;;;;;;;5.00;3.15;;;;;;;8.28;83.86;99918.63;5082923;28;20427;-92
2022/11/18 07:33:25;;;;;;;5.40;3.25;;;;;;;8.32;83.92;99929.88;5083375;28;20020;-91
2022/11/18 07:35:50;;;;;;;6.80;3.38;;;;;;;8.28;83.38;99928.31;5087897;28;20097;-92
2022/11/18 07:38:16;;;;;;;6.03;3.28;;;;;;;8.38;83.11;99934.91;5065190;28;20023;-92
2022/11/18 07:40:41;;;;;;;9.10;3.75;;;;;;;8.28;83.68;99939.69;5068049;28;20054;-92
2022/11/18 07:43:07;;;;;;;9.65;3.92;;;;;;;8.42;83.21;99947.88;5090371;28;20043;-94
2022/11/18 07:45:32;;;;;;;9.00;3.47;;;;;;;8.38;83.09;99948.06;5088865;28;20105;-92
2022/11/18 07:47:57;;;;;;;7.53;3.05;;;;;;;8.30;83.25;99937.88;5072241;28;20034;-93
2022/11/18 07:50:22;;;;;;;10.65;4.18;;;;;;;8.28;83.33;99952.00;5085328;28;20059;-91
2022/11/18 07:52:48;;;;;;;8.93;4.05;;;;;;;8.22;83.92;99954.94;5072678;28;20028;-91
2022/11/18 07:55:13;;;;;;;5.57;4.05;;;;;;;8.20;83.67;99952.34;5086187;28;20031;-93
2022/11/18 07:57:38;;;;;;;7.40;3.47;;;;;;;8.28;83.45;99955.50;5087387;28;20505;-92
2022/11/18 08:00:04;;;;;;;8.40;3.55;;;;;;;8.37;83.50;99957.75;5069504;28;20059;-91
2022/11/18 08:02:29;;;;;;;7.07;3.78;;;;;;;8.42;82.99;99968.94;5069410;28;20043;-91
2022/11/18 08:04:55;;;;;;;5.47;3.80;;;;;;;8.47;82.93;99959.97;5070215;28;20028;-92
2022/11/18 08:07:20;;;;;;;8.15;3.72;;;;;;;8.63;82.40;99961.00;5090093;28;20020;-91
2022/11/18 08:09:45;;;;;;;8.65;3.75;;;;;;;8.90;81.90;99964.09;5071223;28;20028;-91
2022/11/18 08:12:10;;;;;;;9.73;4.00;;;;;;;9.07;80.39;99973.84;5068133;28;20023;-90
2022/11/18 08:14:36;;;;;;;8.68;3.85;;;;;;;9.03;80.45;99970.50;5067184;28;20040;-91
2022/11/18 08:17:01;;;;;;;6.30;3.03;;;;;;;9.08;80.15;99972.91;5066639;28;20395;-91
2022/11/18 08:19:26;;;;;;;6.03;3.55;;;;;;;9.06;80.47;99983.53;5081358;28;20023;-91
2022/11/18 08:21:51;;;;;;;7.05;3.38;;;;;;;9.15;80.28;99985.75;5071645;28;20032;-91
2022/11/18 08:24:17;;;;;;;5.90;3.22;;;;;;;9.13;80.27;99981.47;5062904;28;20380;-89
2022/11/18 08:26:42;;;;;;;7.10;3.97;;;;;;;9.17;79.81;99989.16;5061219;28;20032;-95
2022/11/18 08:29:07;;;;;;;6.07;3.95;;;;;;;9.10;79.78;99995.66;5064113;28;20031;-93
2022/11/18 08:31:33;;;;;;;5.35;3.60;;;;;;;8.97;79.87;100002.44;5066975;28;20031;-93
2022/11/18 08:34:00;;;;;;;4.82;3.50;;;;;;;8.97;80.06;100007.72;5070713;28;20059;-94
2022/11/18 08:36:28;;;;;;;5.00;3.40;;;;;;;8.86;80.30;99997.69;5069958;28;20031;-92
2022/11/18 08:38:58;;;;;;;8.38;3.88;;;;;;;8.84;80.44;100002.16;5089300;28;20032;-94
2022/11/18 08:41:37;;;;;;;7.50;3.90;;;;;;;8.99;80.74;100005.84;5085916;28;20031;-94
2022/11/18 08:44:04;;;;;;;7.70;3.50;;;;;;;9.12;80.56;100003.50;5082682;28;20032;-93
2022/11/18 08:46:30;;;;;;;5.10;3.13;;;;;;;9.40;79.33;100000.38;5083800;28;20050;-94
2022/11/18 08:48:56;;;;;;;7.63;3.28;;;;;;;9.50;78.74;100008.69;5088281;28;20048;-92
2022/11/18 08:51:21;;;;;;;10.20;3.53;;;;;;;9.57;78.38;100012.75;5072739;28;20368;-94
2022/11/18 08:53:47;;;;;;;5.95;3.88;;;;;;;9.59;77.83;100001.19;5070119;28;20381;-94
2022/11/18 08:56:15;;;;;;;6.05;3.33;;;;;;;9.70;78.11;100014.72;5066955;28;20028;-94
2022/11/18 08:58:41;;;;;;;6.72;4.20;;;;;;;9.78;76.78;100013.47;5069578;28;20387;-93
2022/11/18 09:01:07;;;;;;;10.73;3.35;;;;;;;9.75;77.19;100011.00;5070214;28;20016;-92
2022/11/18 09:03:33;;;;;;;8.77;3.30;;;;;;;9.70;77.83;100001.50;5085910;28;20052;-93
2022/11/18 09:06:05;;;;;;;8.40;3.47;;;;;;;9.86;77.52;100021.84;5071165;28;20085;-94
2022/11/18 09:08:31;;;;;;;;;;;;;;;9.93;77.44;100025.88;5069898;28;20042;-94
2022/11/18 09:10:56;;;;;;;6.17;3.30;;;;;;;9.84;76.86;100024.59;5065099;28;20309;-93
2022/11/18 09:13:21;;;;;;;10.57;3.85;;;;;;;9.74;76.55;100023.31;5088297;28;20368;-93
2022/11/18 09:15:46;;;;;;;9.48;3.72;;;;;;;9.86;76.90;100019.22;5089011;28;20372;-93
2022/11/18 09:18:12;;;;;;;8.57;3.42;;;;;;;10.14;76.61;100021.31;5071212;28;20063;-95
2022/11/18 09:20:37;;;;;;;8.40;3.20;;;;;;;10.86;74.27;100023.66;5070302;28;20081;-93
2022/11/18 09:23:02;;;;;;;8.45;3.38;;;;;;;12.85;68.78;100037.69;5069722;28;20028;-91
2022/11/18 09:25:27;;;;;;;8.82;3.38;;;;;;;14.43;62.95;100026.38;5081896;28;20034;-91
2022/11/18 09:27:54;;;;;;;7.75;2.83;;;;;;;15.72;58.67;100030.53;5084102;28;20612;-91
2022/11/18 09:30:19;;;;;;;7.03;2.30;;;;;;;15.63;56.95;100032.03;5066352;28;20118;-91
2022/11/18 09:32:44;;;;;;;7.70;3.00;;;;;;;16.47;56.06;100031.00;5085775;28;20103;-90
2022/11/18 09:35:10;;;;;;;3.97;2.03;;;;;;;17.26;53.45;100049.72;5081903;28;20107;-92
2022/11/18 09:37:35;;;;;;;10.82;2.45;;;;;;;16.83;52.85;100048.66;5067767;28;20024;-92
2022/11/18 09:40:00;;;;;;;8.45;2.50;;;;;;;16.83;55.64;100050.44;5075462;28;20122;-90
2022/11/18 09:42:52;;;;;;;3.92;2.00;;;;;;;18.71;54.12;100063.50;5089038;28;20039;-90
2022/11/18 09:45:27;;;;;;;5.13;1.93;;;;;;;19.66;47.87;100057.78;5068946;28;20036;-90
2022/11/18 09:47:57;;;;;;;8.35;2.40;;;;;;;18.80;48.34;100062.72;5091787;28;20288;-90
2022/11/18 09:50:22;;;;;;;5.40;2.35;;;;;;;18.76;48.21;100078.19;5090716;28;20059;-90
2022/11/18 09:53:05;;;;;;;6.95;2.10;;;;;;;18.60;50.64;100075.09;5074780;28;20020;-90
2022/11/18 09:55:30;;;;;;;5.80;2.15;;;;;;;16.79;52.72;100079.22;5070158;28;20044;-91
2022/11/18 09:57:58;;;;;;;4.53;2.22;;;;;;;15.46;55.05;100091.88;5087355;28;20498;-92
2022/11/18 10:00:27;;;;;;;6.40;2.70;;;;;;;14.54;58.53;100090.34;5067857;28;20041;-92
2022/11/18 10:03:03;;;;;;;3.08;2.05;;;;;;;14.13;59.88;100092.28;5066742;28;20484;-92
2022/11/18 10:05:48;;;;;;;6.63;2.50;;;;;;;13.73;62.61;100093.09;5069121;28;20020;-93
2022/11/18 10:08:38;;;;;;;4.95;2.30;;;;;;;13.45;63.32;100090.53;5091389;28;20532;-91
2022/11/18 10:11:17;;;;;;;9.32;3.22;;;;;;;13.41;63.52;100099.66;5071393;28;20024;-92
2022/11/18 10:14:04;;;;;;;7.85;2.60;;;;;;;13.90;62.50;100092.00;5085248;28;20641;-91
2022/11/18 10:16:53;;;;;;;8.57;3.42;;;;;;;13.59;61.38;100105.59;5080437;28;20097;-90
2022/11/18 10:19:41;;;;;;;8.35;3.25;;;;;;;13.38;63.45;100108.69;5086942;28;20035;-90
2022/11/18 10:22:20;;;;;;;4.85;2.65;;;;;;;13.56;62.37;100100.47;5073550;28;20084;-90
2022/11/18 10:24:50;;;;;;;5.38;2.58;;;;;;;13.22;64.23;100108.78;5064971;28;20484;-90
2022/11/18 10:27:17;;;;;;;6.25;2.20;;;;;;;13.19;65.75;100100.97;5066673;28;21007;-90
2022/11/18 10:29:44;;;;;;;6.32;3.10;;;;;;;13.42;64.67;100111.97;5091133;28;20081;-90
2022/11/18 10:32:13;;;;;;;6.50;2.70;;;;;;;13.74;64.34;100102.78;5073125;28;20035;-90
2022/11/18 10:34:47;;;;;;;6.13;2.70;;;;;;;14.74;61.53;100099.66;5091124;28;20446;-89
2022/11/18 10:37:27;;;;;;;6.95;2.53;;;;;;;15.23;58.55;100127.28;5088699;28;20035;-90
2022/11/18 10:39:55;;;;;;;4.90;2.65;;;;;;;14.84;58.03;100117.63;5082736;28;20185;-91
2022/11/18 10:42:45;;;;;;;5.95;2.22;;;;;;;14.04;60.73;100126.50;5083158;28;20406;-91
2022/11/18 10:45:26;;;;;;;5.30;2.03;;;;;;;13.53;63.27;100120.97;5085566;28;20028;-91
2022/11/18 10:47:59;;;;;;;3.92;2.05;;;;;;;13.13;64.83;100125.22;5064513;28;20024;-91
2022/11/18 10:50:39;;;;;;;9.77;3.30;;;;;;;12.88;65.99;100125.06;5089809;28;20548;-91
2022/11/18 10:53:06;;;;;;;4.95;2.90;;;;;;;12.44;65.12;100131.22;5085629;28;20031;-91
2022/11/18 10:55:32;;;;;;;3.92;2.10;;;;;;;12.33;66.15;100123.91;5090150;28;20032;-92
2022/11/18 10:58:09;;;;;;;7.82;2.20;;;;;;;12.43;66.84;100132.16;5083451;28;20062;-91
2022/11/18 11:00:44;;;;;;;7.47;2.08;;;;;;;12.25;66.79;100131.44;5087016;28;20532;-91
2022/11/18 11:03:22;;;;;;;9.48;2.28;;;;;;;12.23;67.64;100125.41;5057620;28;20534;-91
2022/11/18 11:06:08;;;;;;;7.38;2.17;;;;;;;12.21;67.79;100143.16;5067050;28;20118;-91
2022/11/18 11:08:33;;;;;;;5.00;2.25;;;;;;;12.22;68.96;100139.59;5069399;28;20538;-91
2022/11/18 11:10:58;;;;;;;6.35;2.60;;;;;;;12.26;68.64;100135.78;5089236;28;20095;-91
2022/11/18 11:13:29;;;;;;;8.85;2.45;;;;;;;12.16;67.75;100134.63;5068651;28;20039;-91
2022/11/18 11:16:00;;;;;;;4.55;2.15;;;;;;;12.18;68.80;100130.13;5070296;28;20398;-92
2022/11/18 11:18:41;;;;;;;3.97;2.53;;;;;;;12.28;67.48;100149.84;5085134;28;20036;-91
2022/11/18 11:21:24;;;;;;;9.07;2.65;;;;;;;12.24;68.18;100143.00;5089128;28;20085;-92
2022/11/18 11:23:49;;;;;;;5.35;2.55;;;;;;;12.27;68.15;100141.97;5079502;28;20036;-91
2022/11/18 11:26:43;;;;;;;8.38;2.50;;;;;;;12.40;68.13;100150.91;5058041;28;20028;-90
2022/11/18 11:29:27;;;;;;;9.82;2.80;;;;;;;12.31;67.68;100144.38;5088447;28;20028;-91
2022/11/18 11:31:55;;;;;;;5.75;2.50;;;;;;;12.30;67.89;100155.88;5064690;28;20052;-91
2022/11/18 11:34:33;;;;;;;5.03;2.72;;;;;;;12.14;67.80;100149.78;5079701;28;20042;-91
2022/11/18 11:37:25;;;;;;;3.47;2.60;;;;;;;12.13;67.73;100148.06;5087006;28;20027;-92
2022/11/18 11:40:06;;;;;;;9.82;3.05;;;;;;;12.26;67.58;100164.94;5086089;28;20027;-92
2022/11/18 11:42:42;;;;;;;8.07;2.38;;;;;;;12.36;68.20;100166.16;5066446;28;20122;-92
2022/11/18 11:45:17;;;;;;;7.07;2.42;;;;;;;12.40;67.21;100159.72;5080659;28;20384;-92
2022/11/18 11:48:17;;;;;;;7.35;2.63;;;;;;;12.23;68.16;100159.84;5082288;28;20604;-91
2022/11/18 11:50:58;;;;;;;7.72;2.72;;;;;;;12.24;68.93;100169.50;5061355;28;20442;-92
2022/11/18 11:53:37;;;;;;;6.20;2.60;;;;;;;12.21;68.57;100156.41;5065534;28;20024;-91
2022/11/18 11:56:32;;;;;;;4.45;3.00;;;;;;;12.27;68.45;100165.84;5065096;28;20028;-91
2022/11/18 11:59:27;;;;;;;7.03;2.65;;;;;;;12.16;68.53;100175.22;5067619;28;20035;-91
2022/11/18 12:02:10;;;;;;;9.48;3.33;;;;;;;12.16;69.45;100175.22;5064828;28;20527;-91